sensor_id;sensor_type;location;lat;lon;timestamp;P1;durP1;ratioP1;P2;durP2;ratioP2
73980;SDS011;62348;51.412;5.436;2023-06-10T00:01:42;10.13;;;7.30;;
73980;SDS011;62348;51.412;5.436;2023-06-10T00:04:12;9.10;;;7.82;;
73980;SDS011;62348;51.412;5.436;2023-06-10T00:06:37;12.98;;;8.50;;
73980;SDS011;62348;51.412;5.436;2023-06-10T00:09:04;8.98;;;6.93;;
73980;SDS011;62348;51.412;5.436;2023-06-10T00:11:31;7.63;;;6.93;;
73980;SDS011;62348;51.412;5.436;2023-06-10T00:13:57;8.90;;;7.63;;
73980;SDS011;62348;51.412;5.436;2023-06-10T00:16:23;8.63;;;7.68;;
73980;SDS011;62348;51.412;5.436;2023-06-10T00:18:49;8.90;;;7.40;;
73980;SDS011;62348;51.412;5.436;2023-06-10T00:21:16;8.75;;;7.53;;
73980;SDS011;62348;51.412;5.436;2023-06-10T00:23:41;12.20;;;8.10;;
73980;SDS011;62348;51.412;5.436;2023-06-10T00:26:07;8.20;;;7.35;;
73980;SDS011;62348;51.412;5.436;2023-06-10T00:28:33;10.35;;;7.70;;
73980;SDS011;62348;51.412;5.436;2023-06-10T00:30:58;10.95;;;7.43;;
73980;SDS011;62348;51.412;5.436;2023-06-10T00:33:24;7.75;;;7.00;;
73980;SDS011;62348;51.412;5.436;2023-06-10T00:35:49;8.70;;;7.50;;
73980;SDS011;62348;51.412;5.436;2023-06-10T00:38:14;8.80;;;7.63;;
73980;SDS011;62348;51.412;5.436;2023-06-10T00:40:40;9.63;;;7.18;;
73980;SDS011;62348;51.412;5.436;2023-06-10T00:43:06;10.13;;;8.30;;
73980;SDS011;62348;51.412;5.436;2023-06-10T00:45:32;10.23;;;7.72;;
73980;SDS011;62348;51.412;5.436;2023-06-10T00:47:58;10.45;;;7.55;;
73980;SDS011;62348;51.412;5.436;2023-06-10T00:50:25;8.30;;;7.47;;
73980;SDS011;62348;51.412;5.436;2023-06-10T00:52:51;9.15;;;7.85;;
73980;SDS011;62348;51.412;5.436;2023-06-10T00:55:18;10.45;;;8.52;;
73980;SDS011;62348;51.412;5.436;2023-06-10T00:57:44;8.82;;;7.75;;
73980;SDS011;62348;51.412;5.436;2023-06-10T01:00:11;7.95;;;7.15;;
73980;SDS011;62348;51.412;5.436;2023-06-10T01:02:37;9.02;;;8.10;;
73980;SDS011;62348;51.412;5.436;2023-06-10T01:05:03;9.40;;;8.02;;
73980;SDS011;62348;51.412;5.436;2023-06-10T01:13:05;10.70;;;8.25;;
73980;SDS011;62348;51.412;5.436;2023-06-10T01:15:33;9.27;;;8.32;;
73980;SDS011;62348;51.412;5.436;2023-06-10T01:18:00;10.07;;;8.07;;
73980;SDS011;62348;51.412;5.436;2023-06-10T01:20:28;12.65;;;7.90;;
73980;SDS011;62348;51.412;5.436;2023-06-10T01:22:56;9.25;;;7.78;;
73980;SDS011;62348;51.412;5.436;2023-06-10T01:25:26;8.88;;;7.97;;
73980;SDS011;62348;51.412;5.436;2023-06-10T01:30:30;8.95;;;8.02;;
73980;SDS011;62348;51.412;5.436;2023-06-10T01:33:19;9.30;;;8.30;;
73980;SDS011;62348;51.412;5.436;2023-06-10T01:38:16;9.90;;;7.68;;
73980;SDS011;62348;51.412;5.436;2023-06-10T01:40:44;16.23;;;9.15;;
73980;SDS011;62348;51.412;5.436;2023-06-10T01:43:11;11.77;;;7.88;;
73980;SDS011;62348;51.412;5.436;2023-06-10T01:45:37;9.38;;;8.40;;
73980;SDS011;62348;51.412;5.436;2023-06-10T01:48:02;10.95;;;8.13;;
73980;SDS011;62348;51.412;5.436;2023-06-10T01:50:28;9.57;;;8.57;;
73980;SDS011;62348;51.412;5.436;2023-06-10T01:52:53;10.02;;;8.88;;
73980;SDS011;62348;51.412;5.436;2023-06-10T01:55:18;9.57;;;8.60;;
73980;SDS011;62348;51.412;5.436;2023-06-10T01:57:44;10.23;;;8.43;;
73980;SDS011;62348;51.412;5.436;2023-06-10T02:00:10;13.82;;;9.35;;
73980;SDS011;62348;51.412;5.436;2023-06-10T02:02:35;9.95;;;8.27;;
73980;SDS011;62348;51.412;5.436;2023-06-10T02:05:01;9.45;;;8.45;;
73980;SDS011;62348;51.412;5.436;2023-06-10T02:07:26;11.35;;;9.05;;
73980;SDS011;62348;51.412;5.436;2023-06-10T02:09:52;9.00;;;8.10;;
73980;SDS011;62348;51.412;5.436;2023-06-10T02:12:17;11.32;;;8.77;;
73980;SDS011;62348;51.412;5.436;2023-06-10T02:14:42;10.52;;;8.38;;
73980;SDS011;62348;51.412;5.436;2023-06-10T02:17:08;10.80;;;8.90;;
73980;SDS011;62348;51.412;5.436;2023-06-10T02:19:37;11.18;;;8.60;;
73980;SDS011;62348;51.412;5.436;2023-06-10T02:22:07;12.70;;;9.15;;
73980;SDS011;62348;51.412;5.436;2023-06-10T02:24:32;11.20;;;9.02;;
73980;SDS011;62348;51.412;5.436;2023-06-10T02:26:58;11.15;;;8.23;;
73980;SDS011;62348;51.412;5.436;2023-06-10T02:29:25;9.52;;;8.57;;
73980;SDS011;62348;51.412;5.436;2023-06-10T02:31:50;9.73;;;8.82;;
73980;SDS011;62348;51.412;5.436;2023-06-10T02:34:17;11.60;;;9.68;;
73980;SDS011;62348;51.412;5.436;2023-06-10T02:36:43;12.50;;;9.27;;
73980;SDS011;62348;51.412;5.436;2023-06-10T02:39:09;9.85;;;8.85;;
73980;SDS011;62348;51.412;5.436;2023-06-10T02:41:34;12.25;;;9.20;;
73980;SDS011;62348;51.412;5.436;2023-06-10T02:44:00;9.15;;;8.27;;
73980;SDS011;62348;51.412;5.436;2023-06-10T02:46:26;14.95;;;10.02;;
73980;SDS011;62348;51.412;5.436;2023-06-10T02:48:53;13.10;;;9.68;;
73980;SDS011;62348;51.412;5.436;2023-06-10T02:51:19;10.05;;;9.05;;
73980;SDS011;62348;51.412;5.436;2023-06-10T02:53:45;11.82;;;9.23;;
73980;SDS011;62348;51.412;5.436;2023-06-10T02:56:11;9.55;;;8.55;;
73980;SDS011;62348;51.412;5.436;2023-06-10T02:58:37;10.77;;;9.15;;
73980;SDS011;62348;51.412;5.436;2023-06-10T03:01:03;11.98;;;9.25;;
73980;SDS011;62348;51.412;5.436;2023-06-10T03:03:28;10.27;;;9.25;;
73980;SDS011;62348;51.412;5.436;2023-06-10T03:05:55;10.13;;;9.13;;
73980;SDS011;62348;51.412;5.436;2023-06-10T03:08:21;14.10;;;10.02;;
73980;SDS011;62348;51.412;5.436;2023-06-10T03:10:47;10.80;;;9.13;;
73980;SDS011;62348;51.412;5.436;2023-06-10T03:13:12;12.02;;;9.43;;
73980;SDS011;62348;51.412;5.436;2023-06-10T03:15:39;13.30;;;10.38;;
73980;SDS011;62348;51.412;5.436;2023-06-10T03:18:05;10.77;;;9.77;;
73980;SDS011;62348;51.412;5.436;2023-06-10T03:20:31;12.55;;;10.27;;
73980;SDS011;62348;51.412;5.436;2023-06-10T03:23:01;12.30;;;9.73;;
73980;SDS011;62348;51.412;5.436;2023-06-10T03:25:27;17.20;;;10.85;;
73980;SDS011;62348;51.412;5.436;2023-06-10T03:27:53;16.90;;;10.75;;
73980;SDS011;62348;51.412;5.436;2023-06-10T03:30:19;11.50;;;10.32;;
73980;SDS011;62348;51.412;5.436;2023-06-10T03:32:44;12.05;;;10.65;;
73980;SDS011;62348;51.412;5.436;2023-06-10T03:35:10;11.20;;;10.10;;
73980;SDS011;62348;51.412;5.436;2023-06-10T03:37:35;11.70;;;10.52;;
73980;SDS011;62348;51.412;5.436;2023-06-10T03:40:01;11.13;;;10.07;;
73980;SDS011;62348;51.412;5.436;2023-06-10T03:42:26;11.55;;;10.35;;
73980;SDS011;62348;51.412;5.436;2023-06-10T03:44:52;11.10;;;10.05;;
73980;SDS011;62348;51.412;5.436;2023-06-10T03:47:17;11.30;;;9.95;;
73980;SDS011;62348;51.412;5.436;2023-06-10T03:49:43;12.18;;;10.80;;
73980;SDS011;62348;51.412;5.436;2023-06-10T03:52:08;12.02;;;10.73;;
73980;SDS011;62348;51.412;5.436;2023-06-10T03:54:34;12.48;;;10.45;;
73980;SDS011;62348;51.412;5.436;2023-06-10T03:57:00;13.95;;;11.35;;
73980;SDS011;62348;51.412;5.436;2023-06-10T03:59:26;12.82;;;10.38;;
73980;SDS011;62348;51.412;5.436;2023-06-10T04:01:51;15.00;;;11.60;;
73980;SDS011;62348;51.412;5.436;2023-06-10T04:04:16;13.27;;;11.40;;
73980;SDS011;62348;51.412;5.436;2023-06-10T04:06:42;13.10;;;11.82;;
73980;SDS011;62348;51.412;5.436;2023-06-10T04:09:08;12.20;;;10.82;;
73980;SDS011;62348;51.412;5.436;2023-06-10T04:11:34;12.63;;;11.43;;
73980;SDS011;62348;51.412;5.436;2023-06-10T04:14:00;14.32;;;11.45;;
73980;SDS011;62348;51.412;5.436;2023-06-10T04:16:26;12.88;;;11.52;;
73980;SDS011;62348;51.412;5.436;2023-06-10T04:18:52;13.75;;;12.27;;
73980;SDS011;62348;51.412;5.436;2023-06-10T04:21:17;13.63;;;12.23;;
73980;SDS011;62348;51.412;5.436;2023-06-10T04:23:43;13.82;;;12.30;;
73980;SDS011;62348;51.412;5.436;2023-06-10T04:26:08;19.90;;;12.40;;
73980;SDS011;62348;51.412;5.436;2023-06-10T04:28:36;14.75;;;12.52;;
73980;SDS011;62348;51.412;5.436;2023-06-10T04:31:01;15.88;;;12.55;;
73980;SDS011;62348;51.412;5.436;2023-06-10T04:33:28;14.45;;;12.18;;
73980;SDS011;62348;51.412;5.436;2023-06-10T04:35:54;12.98;;;11.70;;
73980;SDS011;62348;51.412;5.436;2023-06-10T04:38:20;14.98;;;12.10;;
73980;SDS011;62348;51.412;5.436;2023-06-10T04:40:46;16.85;;;13.40;;
73980;SDS011;62348;51.412;5.436;2023-06-10T04:43:11;13.77;;;12.23;;
73980;SDS011;62348;51.412;5.436;2023-06-10T04:45:38;17.25;;;12.73;;
73980;SDS011;62348;51.412;5.436;2023-06-10T04:48:03;13.07;;;11.77;;
73980;SDS011;62348;51.412;5.436;2023-06-10T04:50:28;18.55;;;13.38;;
73980;SDS011;62348;51.412;5.436;2023-06-10T04:52:54;17.15;;;13.73;;
73980;SDS011;62348;51.412;5.436;2023-06-10T04:55:22;15.00;;;12.80;;
73980;SDS011;62348;51.412;5.436;2023-06-10T04:57:48;13.90;;;12.13;;
73980;SDS011;62348;51.412;5.436;2023-06-10T05:00:13;14.50;;;12.93;;
73980;SDS011;62348;51.412;5.436;2023-06-10T05:02:39;15.18;;;12.82;;
73980;SDS011;62348;51.412;5.436;2023-06-10T05:05:04;14.93;;;12.90;;
73980;SDS011;62348;51.412;5.436;2023-06-10T05:07:30;17.08;;;13.95;;
73980;SDS011;62348;51.412;5.436;2023-06-10T05:09:56;15.35;;;12.80;;
73980;SDS011;62348;51.412;5.436;2023-06-10T05:12:21;14.52;;;13.00;;
73980;SDS011;62348;51.412;5.436;2023-06-10T05:14:47;16.48;;;12.68;;
73980;SDS011;62348;51.412;5.436;2023-06-10T05:17:12;15.82;;;13.23;;
73980;SDS011;62348;51.412;5.436;2023-06-10T05:19:38;14.82;;;13.25;;
73980;SDS011;62348;51.412;5.436;2023-06-10T05:22:03;14.93;;;13.43;;
73980;SDS011;62348;51.412;5.436;2023-06-10T05:24:29;15.77;;;13.02;;
73980;SDS011;62348;51.412;5.436;2023-06-10T05:26:54;14.75;;;13.18;;
73980;SDS011;62348;51.412;5.436;2023-06-10T05:29:20;15.60;;;13.27;;
73980;SDS011;62348;51.412;5.436;2023-06-10T05:31:45;16.10;;;13.93;;
73980;SDS011;62348;51.412;5.436;2023-06-10T05:34:11;14.70;;;13.25;;
73980;SDS011;62348;51.412;5.436;2023-06-10T05:36:36;14.50;;;13.00;;
73980;SDS011;62348;51.412;5.436;2023-06-10T05:39:02;13.68;;;12.25;;
73980;SDS011;62348;51.412;5.436;2023-06-10T05:41:28;16.45;;;13.48;;
73980;SDS011;62348;51.412;5.436;2023-06-10T05:43:53;15.77;;;13.05;;
73980;SDS011;62348;51.412;5.436;2023-06-10T05:46:19;15.82;;;13.38;;
73980;SDS011;62348;51.412;5.436;2023-06-10T05:48:45;18.33;;;13.93;;
73980;SDS011;62348;51.412;5.436;2023-06-10T05:51:10;16.50;;;13.27;;
73980;SDS011;62348;51.412;5.436;2023-06-10T05:53:36;14.13;;;12.40;;
73980;SDS011;62348;51.412;5.436;2023-06-10T05:56:01;14.80;;;13.30;;
73980;SDS011;62348;51.412;5.436;2023-06-10T05:58:27;16.15;;;12.40;;
73980;SDS011;62348;51.412;5.436;2023-06-10T06:00:52;13.93;;;12.38;;
73980;SDS011;62348;51.412;5.436;2023-06-10T06:03:18;14.55;;;13.00;;
73980;SDS011;62348;51.412;5.436;2023-06-10T06:05:43;16.92;;;12.77;;
73980;SDS011;62348;51.412;5.436;2023-06-10T06:08:09;13.20;;;11.88;;
73980;SDS011;62348;51.412;5.436;2023-06-10T06:10:35;13.68;;;12.25;;
73980;SDS011;62348;51.412;5.436;2023-06-10T06:13:00;14.73;;;12.68;;
73980;SDS011;62348;51.412;5.436;2023-06-10T06:15:26;13.80;;;11.85;;
73980;SDS011;62348;51.412;5.436;2023-06-10T06:17:52;16.48;;;13.18;;
73980;SDS011;62348;51.412;5.436;2023-06-10T06:20:18;14.70;;;12.90;;
73980;SDS011;62348;51.412;5.436;2023-06-10T06:22:44;13.90;;;12.45;;
73980;SDS011;62348;51.412;5.436;2023-06-10T06:25:10;13.43;;;11.70;;
73980;SDS011;62348;51.412;5.436;2023-06-10T06:27:36;15.23;;;11.85;;
73980;SDS011;62348;51.412;5.436;2023-06-10T06:30:01;13.98;;;12.60;;
73980;SDS011;62348;51.412;5.436;2023-06-10T06:32:27;12.85;;;11.68;;
73980;SDS011;62348;51.412;5.436;2023-06-10T06:34:52;14.80;;;11.77;;
73980;SDS011;62348;51.412;5.436;2023-06-10T06:37:22;16.30;;;12.60;;
73980;SDS011;62348;51.412;5.436;2023-06-10T06:39:50;16.17;;;11.95;;
73980;SDS011;62348;51.412;5.436;2023-06-10T06:42:15;14.18;;;12.68;;
73980;SDS011;62348;51.412;5.436;2023-06-10T06:44:41;13.77;;;11.25;;
73980;SDS011;62348;51.412;5.436;2023-06-10T06:47:07;14.43;;;11.98;;
73980;SDS011;62348;51.412;5.436;2023-06-10T06:49:32;15.55;;;11.25;;
73980;SDS011;62348;51.412;5.436;2023-06-10T06:51:58;13.65;;;11.32;;
73980;SDS011;62348;51.412;5.436;2023-06-10T06:54:23;14.75;;;11.63;;
73980;SDS011;62348;51.412;5.436;2023-06-10T06:56:48;16.27;;;11.77;;
73980;SDS011;62348;51.412;5.436;2023-06-10T06:59:15;17.45;;;11.55;;
73980;SDS011;62348;51.412;5.436;2023-06-10T07:01:42;13.35;;;11.50;;
73980;SDS011;62348;51.412;5.436;2023-06-10T07:04:07;13.88;;;11.60;;
73980;SDS011;62348;51.412;5.436;2023-06-10T07:06:33;14.05;;;10.85;;
73980;SDS011;62348;51.412;5.436;2023-06-10T07:08:58;16.38;;;11.55;;
73980;SDS011;62348;51.412;5.436;2023-06-10T07:11:23;15.10;;;10.90;;
73980;SDS011;62348;51.412;5.436;2023-06-10T07:13:50;13.55;;;10.95;;
73980;SDS011;62348;51.412;5.436;2023-06-10T07:16:15;15.02;;;12.30;;
73980;SDS011;62348;51.412;5.436;2023-06-10T07:18:41;13.88;;;11.50;;
73980;SDS011;62348;51.412;5.436;2023-06-10T07:21:06;15.32;;;10.75;;
73980;SDS011;62348;51.412;5.436;2023-06-10T07:23:31;14.45;;;10.93;;
73980;SDS011;62348;51.412;5.436;2023-06-10T07:25:57;13.95;;;10.77;;
73980;SDS011;62348;51.412;5.436;2023-06-10T07:28:22;14.82;;;10.18;;
73980;SDS011;62348;51.412;5.436;2023-06-10T07:30:48;11.25;;;10.02;;
73980;SDS011;62348;51.412;5.436;2023-06-10T07:33:13;10.52;;;9.43;;
73980;SDS011;62348;51.412;5.436;2023-06-10T07:35:38;11.98;;;10.52;;
73980;SDS011;62348;51.412;5.436;2023-06-10T07:38:04;13.73;;;10.93;;
73980;SDS011;62348;51.412;5.436;2023-06-10T07:40:29;14.05;;;10.02;;
73980;SDS011;62348;51.412;5.436;2023-06-10T07:42:55;15.07;;;10.15;;
73980;SDS011;62348;51.412;5.436;2023-06-10T07:45:20;10.95;;;9.23;;
73980;SDS011;62348;51.412;5.436;2023-06-10T07:47:46;13.23;;;9.85;;
73980;SDS011;62348;51.412;5.436;2023-06-10T07:50:11;11.73;;;9.60;;
73980;SDS011;62348;51.412;5.436;2023-06-10T07:52:37;10.20;;;8.82;;
73980;SDS011;62348;51.412;5.436;2023-06-10T07:55:02;12.50;;;8.85;;
73980;SDS011;62348;51.412;5.436;2023-06-10T07:57:29;12.20;;;8.70;;
73980;SDS011;62348;51.412;5.436;2023-06-10T07:59:56;13.98;;;10.07;;
73980;SDS011;62348;51.412;5.436;2023-06-10T08:02:24;10.85;;;9.02;;
73980;SDS011;62348;51.412;5.436;2023-06-10T08:04:50;11.15;;;9.95;;
73980;SDS011;62348;51.412;5.436;2023-06-10T08:07:15;10.30;;;8.50;;
73980;SDS011;62348;51.412;5.436;2023-06-10T08:09:41;9.93;;;8.77;;
73980;SDS011;62348;51.412;5.436;2023-06-10T08:12:06;11.25;;;8.73;;
73980;SDS011;62348;51.412;5.436;2023-06-10T08:14:32;12.43;;;8.23;;
73980;SDS011;62348;51.412;5.436;2023-06-10T08:16:57;9.85;;;8.15;;
73980;SDS011;62348;51.412;5.436;2023-06-10T08:19:23;12.88;;;8.30;;
73980;SDS011;62348;51.412;5.436;2023-06-10T08:21:48;8.95;;;7.38;;
73980;SDS011;62348;51.412;5.436;2023-06-10T08:24:14;11.75;;;7.65;;
73980;SDS011;62348;51.412;5.436;2023-06-10T08:26:42;12.32;;;7.85;;
73980;SDS011;62348;51.412;5.436;2023-06-10T08:29:08;12.10;;;7.65;;
73980;SDS011;62348;51.412;5.436;2023-06-10T08:31:33;9.73;;;7.72;;
73980;SDS011;62348;51.412;5.436;2023-06-10T08:33:59;8.80;;;7.15;;
73980;SDS011;62348;51.412;5.436;2023-06-10T08:36:24;12.98;;;7.13;;
73980;SDS011;62348;51.412;5.436;2023-06-10T08:38:50;10.60;;;7.13;;
73980;SDS011;62348;51.412;5.436;2023-06-10T08:41:17;10.45;;;7.55;;
73980;SDS011;62348;51.412;5.436;2023-06-10T08:43:55;8.85;;;6.47;;
73980;SDS011;62348;51.412;5.436;2023-06-10T08:46:29;9.25;;;7.28;;
73980;SDS011;62348;51.412;5.436;2023-06-10T08:48:56;8.98;;;7.03;;
73980;SDS011;62348;51.412;5.436;2023-06-10T08:51:27;12.55;;;8.20;;
73980;SDS011;62348;51.412;5.436;2023-06-10T08:54:01;10.95;;;7.05;;
73980;SDS011;62348;51.412;5.436;2023-06-10T08:56:30;10.00;;;7.50;;
73980;SDS011;62348;51.412;5.436;2023-06-10T08:59:01;8.77;;;7.15;;
73980;SDS011;62348;51.412;5.436;2023-06-10T09:01:27;14.70;;;6.97;;
73980;SDS011;62348;51.412;5.436;2023-06-10T09:03:53;8.10;;;6.80;;
73980;SDS011;62348;51.412;5.436;2023-06-10T09:06:19;13.18;;;8.38;;
73980;SDS011;62348;51.412;5.436;2023-06-10T09:08:45;7.65;;;6.70;;
73980;SDS011;62348;51.412;5.436;2023-06-10T09:11:11;9.35;;;6.90;;
73980;SDS011;62348;51.412;5.436;2023-06-10T09:13:37;9.70;;;6.40;;
73980;SDS011;62348;51.412;5.436;2023-06-10T09:16:02;8.50;;;7.35;;
73980;SDS011;62348;51.412;5.436;2023-06-10T09:18:28;10.18;;;7.35;;
73980;SDS011;62348;51.412;5.436;2023-06-10T09:20:54;9.07;;;6.75;;
73980;SDS011;62348;51.412;5.436;2023-06-10T09:23:20;10.43;;;6.80;;
73980;SDS011;62348;51.412;5.436;2023-06-10T09:25:51;11.70;;;7.22;;
73980;SDS011;62348;51.412;5.436;2023-06-10T09:28:21;8.15;;;6.97;;
73980;SDS011;62348;51.412;5.436;2023-06-10T09:30:47;8.00;;;7.05;;
73980;SDS011;62348;51.412;5.436;2023-06-10T09:33:13;13.38;;;6.40;;
73980;SDS011;62348;51.412;5.436;2023-06-10T09:35:45;8.48;;;6.45;;
73980;SDS011;62348;51.412;5.436;2023-06-10T09:38:13;7.80;;;6.18;;
73980;SDS011;62348;51.412;5.436;2023-06-10T09:40:53;11.07;;;7.00;;
73980;SDS011;62348;51.412;5.436;2023-06-10T09:43:20;9.65;;;6.85;;
73980;SDS011;62348;51.412;5.436;2023-06-10T09:45:51;10.95;;;6.82;;
73980;SDS011;62348;51.412;5.436;2023-06-10T09:48:22;8.48;;;6.10;;
73980;SDS011;62348;51.412;5.436;2023-06-10T09:50:48;7.07;;;6.28;;
73980;SDS011;62348;51.412;5.436;2023-06-10T09:53:13;11.73;;;6.85;;
73980;SDS011;62348;51.412;5.436;2023-06-10T09:55:40;7.43;;;6.57;;
73980;SDS011;62348;51.412;5.436;2023-06-10T09:58:06;9.68;;;6.80;;
73980;SDS011;62348;51.412;5.436;2023-06-10T10:00:32;8.77;;;6.85;;
73980;SDS011;62348;51.412;5.436;2023-06-10T10:02:59;12.88;;;6.53;;
73980;SDS011;62348;51.412;5.436;2023-06-10T10:05:25;11.45;;;6.40;;
73980;SDS011;62348;51.412;5.436;2023-06-10T10:07:52;7.22;;;6.00;;
73980;SDS011;62348;51.412;5.436;2023-06-10T10:10:19;6.82;;;6.13;;
73980;SDS011;62348;51.412;5.436;2023-06-10T10:12:50;7.78;;;6.30;;
73980;SDS011;62348;51.412;5.436;2023-06-10T10:15:21;12.05;;;7.38;;
73980;SDS011;62348;51.412;5.436;2023-06-10T10:18:01;7.90;;;6.03;;
73980;SDS011;62348;51.412;5.436;2023-06-10T10:20:33;9.40;;;6.13;;
73980;SDS011;62348;51.412;5.436;2023-06-10T10:23:02;8.15;;;6.45;;
73980;SDS011;62348;51.412;5.436;2023-06-10T10:25:34;9.75;;;6.55;;
73980;SDS011;62348;51.412;5.436;2023-06-10T10:28:08;8.05;;;6.35;;
73980;SDS011;62348;51.412;5.436;2023-06-10T10:30:59;7.95;;;5.78;;
73980;SDS011;62348;51.412;5.436;2023-06-10T10:36:13;8.35;;;6.43;;
73980;SDS011;62348;51.412;5.436;2023-06-10T10:38:39;7.70;;;6.45;;
73980;SDS011;62348;51.412;5.436;2023-06-10T10:41:06;9.25;;;6.43;;
73980;SDS011;62348;51.412;5.436;2023-06-10T10:43:32;7.93;;;6.15;;
73980;SDS011;62348;51.412;5.436;2023-06-10T10:46:01;7.65;;;6.15;;
73980;SDS011;62348;51.412;5.436;2023-06-10T10:48:35;9.07;;;6.20;;
73980;SDS011;62348;51.412;5.436;2023-06-10T10:51:02;9.25;;;6.75;;
73980;SDS011;62348;51.412;5.436;2023-06-10T10:53:29;10.50;;;6.40;;
73980;SDS011;62348;51.412;5.436;2023-06-10T10:56:05;10.35;;;6.30;;
73980;SDS011;62348;51.412;5.436;2023-06-10T10:58:32;9.88;;;6.25;;
73980;SDS011;62348;51.412;5.436;2023-06-10T11:00:57;9.35;;;6.40;;
73980;SDS011;62348;51.412;5.436;2023-06-10T11:03:24;6.45;;;5.75;;
73980;SDS011;62348;51.412;5.436;2023-06-10T11:05:53;11.90;;;6.28;;
73980;SDS011;62348;51.412;5.436;2023-06-10T11:09:07;7.93;;;5.78;;
73980;SDS011;62348;51.412;5.436;2023-06-10T11:11:23;8.10;;;6.35;;
73980;SDS011;62348;51.412;5.436;2023-06-10T11:16:29;7.30;;;6.10;;
73980;SDS011;62348;51.412;5.436;2023-06-10T11:18:56;8.98;;;6.07;;
73980;SDS011;62348;51.412;5.436;2023-06-10T11:21:25;8.13;;;6.30;;
73980;SDS011;62348;51.412;5.436;2023-06-10T11:23:50;6.78;;;5.93;;
73980;SDS011;62348;51.412;5.436;2023-06-10T11:26:17;8.45;;;6.30;;
73980;SDS011;62348;51.412;5.436;2023-06-10T11:31:40;6.40;;;5.80;;
73980;SDS011;62348;51.412;5.436;2023-06-10T11:34:07;6.97;;;5.93;;
73980;SDS011;62348;51.412;5.436;2023-06-10T11:36:34;9.55;;;6.80;;
73980;SDS011;62348;51.412;5.436;2023-06-10T11:39:03;7.57;;;5.82;;
73980;SDS011;62348;51.412;5.436;2023-06-10T11:41:31;6.10;;;5.50;;
73980;SDS011;62348;51.412;5.436;2023-06-10T11:44:00;6.97;;;6.10;;
73980;SDS011;62348;51.412;5.436;2023-06-10T11:46:27;8.70;;;5.95;;
73980;SDS011;62348;51.412;5.436;2023-06-10T11:48:53;6.95;;;5.72;;
73980;SDS011;62348;51.412;5.436;2023-06-10T11:51:25;8.70;;;5.25;;
73980;SDS011;62348;51.412;5.436;2023-06-10T11:53:51;6.82;;;6.20;;
73980;SDS011;62348;51.412;5.436;2023-06-10T11:56:23;7.70;;;6.07;;
73980;SDS011;62348;51.412;5.436;2023-06-10T11:59:00;8.15;;;6.22;;
73980;SDS011;62348;51.412;5.436;2023-06-10T12:01:29;7.72;;;6.10;;
73980;SDS011;62348;51.412;5.436;2023-06-10T12:04:06;11.45;;;5.85;;
73980;SDS011;62348;51.412;5.436;2023-06-10T12:11:51;8.80;;;5.28;;
73980;SDS011;62348;51.412;5.436;2023-06-10T12:19:56;6.90;;;6.20;;
73980;SDS011;62348;51.412;5.436;2023-06-10T12:22:22;10.60;;;6.72;;
73980;SDS011;62348;51.412;5.436;2023-06-10T12:25:03;6.93;;;5.97;;
73980;SDS011;62348;51.412;5.436;2023-06-10T12:27:32;7.25;;;5.70;;
73980;SDS011;62348;51.412;5.436;2023-06-10T12:29:58;6.95;;;5.72;;
73980;SDS011;62348;51.412;5.436;2023-06-10T12:35:11;6.10;;;5.60;;
73980;SDS011;62348;51.412;5.436;2023-06-10T12:37:41;9.50;;;5.80;;
73980;SDS011;62348;51.412;5.436;2023-06-10T12:40:07;12.50;;;6.85;;
73980;SDS011;62348;51.412;5.436;2023-06-10T12:42:35;10.15;;;5.63;;
73980;SDS011;62348;51.412;5.436;2023-06-10T12:45:02;7.13;;;5.53;;
73980;SDS011;62348;51.412;5.436;2023-06-10T12:47:35;9.05;;;6.18;;
73980;SDS011;62348;51.412;5.436;2023-06-10T12:50:04;7.18;;;6.20;;
73980;SDS011;62348;51.412;5.436;2023-06-10T12:52:30;7.75;;;5.47;;
73980;SDS011;62348;51.412;5.436;2023-06-10T12:54:56;6.28;;;5.55;;
73980;SDS011;62348;51.412;5.436;2023-06-10T12:57:22;5.85;;;5.35;;
73980;SDS011;62348;51.412;5.436;2023-06-10T12:59:47;8.10;;;5.18;;
73980;SDS011;62348;51.412;5.436;2023-06-10T13:02:22;5.90;;;5.30;;
73980;SDS011;62348;51.412;5.436;2023-06-10T13:04:49;7.60;;;5.70;;
73980;SDS011;62348;51.412;5.436;2023-06-10T13:07:15;6.10;;;5.50;;
73980;SDS011;62348;51.412;5.436;2023-06-10T13:09:41;8.45;;;5.55;;
73980;SDS011;62348;51.412;5.436;2023-06-10T13:12:07;6.63;;;5.80;;
73980;SDS011;62348;51.412;5.436;2023-06-10T13:14:33;9.82;;;5.97;;
73980;SDS011;62348;51.412;5.436;2023-06-10T13:16:58;7.22;;;5.78;;
73980;SDS011;62348;51.412;5.436;2023-06-10T13:19:24;7.22;;;5.55;;
73980;SDS011;62348;51.412;5.436;2023-06-10T13:21:49;8.15;;;5.60;;
73980;SDS011;62348;51.412;5.436;2023-06-10T13:24:14;6.75;;;5.25;;
73980;SDS011;62348;51.412;5.436;2023-06-10T13:26:40;7.82;;;5.85;;
73980;SDS011;62348;51.412;5.436;2023-06-10T13:29:05;7.25;;;5.45;;
73980;SDS011;62348;51.412;5.436;2023-06-10T13:31:32;7.93;;;6.15;;
73980;SDS011;62348;51.412;5.436;2023-06-10T13:33:58;6.53;;;5.90;;
73980;SDS011;62348;51.412;5.436;2023-06-10T13:36:24;7.40;;;6.03;;
73980;SDS011;62348;51.412;5.436;2023-06-10T13:38:49;7.20;;;5.30;;
73980;SDS011;62348;51.412;5.436;2023-06-10T13:41:15;6.30;;;5.70;;
73980;SDS011;62348;51.412;5.436;2023-06-10T13:43:40;8.20;;;5.63;;
73980;SDS011;62348;51.412;5.436;2023-06-10T13:46:06;5.72;;;5.07;;
73980;SDS011;62348;51.412;5.436;2023-06-10T13:48:32;8.82;;;6.25;;
73980;SDS011;62348;51.412;5.436;2023-06-10T13:50:57;7.80;;;5.78;;
73980;SDS011;62348;51.412;5.436;2023-06-10T13:53:22;7.00;;;6.20;;
73980;SDS011;62348;51.412;5.436;2023-06-10T13:55:48;9.73;;;5.72;;
73980;SDS011;62348;51.412;5.436;2023-06-10T13:58:13;7.80;;;5.45;;
73980;SDS011;62348;51.412;5.436;2023-06-10T14:00:39;6.57;;;5.85;;
73980;SDS011;62348;51.412;5.436;2023-06-10T14:03:04;6.68;;;5.70;;
73980;SDS011;62348;51.412;5.436;2023-06-10T14:05:30;6.90;;;5.93;;
73980;SDS011;62348;51.412;5.436;2023-06-10T14:07:55;8.40;;;6.03;;
73980;SDS011;62348;51.412;5.436;2023-06-10T14:10:21;6.55;;;5.80;;
73980;SDS011;62348;51.412;5.436;2023-06-10T14:12:46;6.00;;;5.40;;
73980;SDS011;62348;51.412;5.436;2023-06-10T14:15:12;6.93;;;6.32;;
73980;SDS011;62348;51.412;5.436;2023-06-10T14:17:37;8.15;;;5.22;;
73980;SDS011;62348;51.412;5.436;2023-06-10T14:20:03;7.13;;;6.40;;
73980;SDS011;62348;51.412;5.436;2023-06-10T14:22:29;6.18;;;5.57;;
73980;SDS011;62348;51.412;5.436;2023-06-10T14:24:54;6.15;;;5.55;;
73980;SDS011;62348;51.412;5.436;2023-06-10T14:27:20;7.07;;;6.22;;
73980;SDS011;62348;51.412;5.436;2023-06-10T14:29:45;6.57;;;5.40;;
73980;SDS011;62348;51.412;5.436;2023-06-10T14:32:11;8.23;;;5.63;;
73980;SDS011;62348;51.412;5.436;2023-06-10T14:34:36;5.85;;;5.35;;
73980;SDS011;62348;51.412;5.436;2023-06-10T14:37:03;6.60;;;5.88;;
73980;SDS011;62348;51.412;5.436;2023-06-10T14:39:32;7.45;;;5.93;;
73980;SDS011;62348;51.412;5.436;2023-06-10T14:41:57;6.57;;;5.75;;
73980;SDS011;62348;51.412;5.436;2023-06-10T14:44:23;7.97;;;5.97;;
73980;SDS011;62348;51.412;5.436;2023-06-10T14:46:48;6.30;;;5.72;;
73980;SDS011;62348;51.412;5.436;2023-06-10T14:49:13;6.63;;;6.03;;
73980;SDS011;62348;51.412;5.436;2023-06-10T14:51:39;6.63;;;6.00;;
73980;SDS011;62348;51.412;5.436;2023-06-10T14:54:04;8.13;;;5.97;;
73980;SDS011;62348;51.412;5.436;2023-06-10T14:56:30;6.78;;;6.03;;
73980;SDS011;62348;51.412;5.436;2023-06-10T14:58:55;6.68;;;6.05;;
73980;SDS011;62348;51.412;5.436;2023-06-10T15:01:20;11.50;;;6.15;;
73980;SDS011;62348;51.412;5.436;2023-06-10T15:03:46;7.63;;;6.32;;
73980;SDS011;62348;51.412;5.436;2023-06-10T15:06:11;8.50;;;6.15;;